sensor_id;sensor_type;location;lat;lon;timestamp;temperature;humidity
65207;SHT31;58477;48.072;11.970;2023-03-23T00:01:48;8.45;77.70
65207;SHT31;58477;48.072;11.970;2023-03-23T00:04:16;8.67;76.73
65207;SHT31;58477;48.072;11.970;2023-03-23T00:06:42;8.73;76.69
65207;SHT31;58477;48.072;11.970;2023-03-23T00:09:13;8.80;76.59
65207;SHT31;58477;48.072;11.970;2023-03-23T00:11:40;8.71;76.92
65207;SHT31;58477;48.072;11.970;2023-03-23T00:14:06;8.59;77.36
65207;SHT31;58477;48.072;11.970;2023-03-23T00:16:39;8.48;77.75
65207;SHT31;58477;48.072;11.970;2023-03-23T00:19:11;8.48;77.89
65207;SHT31;58477;48.072;11.970;2023-03-23T00:21:40;8.42;78.10
65207;SHT31;58477;48.072;11.970;2023-03-23T00:24:13;8.47;77.83
65207;SHT31;58477;48.072;11.970;2023-03-23T00:26:42;8.34;77.76
65207;SHT31;58477;48.072;11.970;2023-03-23T00:29:16;8.45;77.65
65207;SHT31;58477;48.072;11.970;2023-03-23T00:31:43;8.38;77.97
65207;SHT31;58477;48.072;11.970;2023-03-23T00:34:16;8.27;78.61
65207;SHT31;58477;48.072;11.970;2023-03-23T00:36:45;8.28;78.38
65207;SHT31;58477;48.072;11.970;2023-03-23T00:39:11;8.27;78.22
65207;SHT31;58477;48.072;11.970;2023-03-23T00:41:37;8.61;77.18
65207;SHT31;58477;48.072;11.970;2023-03-23T00:44:04;8.64;76.99
65207;SHT31;58477;48.072;11.970;2023-03-23T00:46:29;8.61;77.27
65207;SHT31;58477;48.072;11.970;2023-03-23T00:48:56;8.48;77.63
65207;SHT31;58477;48.072;11.970;2023-03-23T00:51:23;8.47;77.80
65207;SHT31;58477;48.072;11.970;2023-03-23T00:53:49;8.45;77.65
65207;SHT31;58477;48.072;11.970;2023-03-23T00:56:15;8.44;77.65
65207;SHT31;58477;48.072;11.970;2023-03-23T00:58:41;8.40;78.09
65207;SHT31;58477;48.072;11.970;2023-03-23T01:01:07;8.41;77.94
65207;SHT31;58477;48.072;11.970;2023-03-23T01:03:33;8.52;77.58
65207;SHT31;58477;48.072;11.970;2023-03-23T01:06:04;8.49;77.80
65207;SHT31;58477;48.072;11.970;2023-03-23T01:08:30;8.30;78.53
65207;SHT31;58477;48.072;11.970;2023-03-23T01:11:04;8.18;78.67
65207;SHT31;58477;48.072;11.970;2023-03-23T01:13:31;8.24;78.56
65207;SHT31;58477;48.072;11.970;2023-03-23T01:15:56;8.17;78.51
65207;SHT31;58477;48.072;11.970;2023-03-23T01:18:22;8.13;78.75
65207;SHT31;58477;48.072;11.970;2023-03-23T01:20:47;8.24;78.65
65207;SHT31;58477;48.072;11.970;2023-03-23T01:23:13;8.24;78.41
65207;SHT31;58477;48.072;11.970;2023-03-23T01:25:38;8.25;78.61
65207;SHT31;58477;48.072;11.970;2023-03-23T01:28:04;8.31;78.65
65207;SHT31;58477;48.072;11.970;2023-03-23T01:30:30;8.40;78.30
65207;SHT31;58477;48.072;11.970;2023-03-23T01:32:56;8.34;78.71
65207;SHT31;58477;48.072;11.970;2023-03-23T01:35:22;8.47;78.37
65207;SHT31;58477;48.072;11.970;2023-03-23T01:37:48;8.42;77.99
65207;SHT31;58477;48.072;11.970;2023-03-23T01:40:15;8.52;77.85
65207;SHT31;58477;48.072;11.970;2023-03-23T01:42:41;8.47;78.36
65207;SHT31;58477;48.072;11.970;2023-03-23T01:47:46;8.48;78.56
65207;SHT31;58477;48.072;11.970;2023-03-23T01:50:13;8.40;78.34
65207;SHT31;58477;48.072;11.970;2023-03-23T01:52:40;8.42;78.18
65207;SHT31;58477;48.072;11.970;2023-03-23T01:55:06;8.65;77.05
65207;SHT31;58477;48.072;11.970;2023-03-23T01:57:33;8.59;77.69
65207;SHT31;58477;48.072;11.970;2023-03-23T02:00:07;8.54;77.90
65207;SHT31;58477;48.072;11.970;2023-03-23T02:02:48;8.59;77.57
65207;SHT31;58477;48.072;11.970;2023-03-23T02:05:23;8.57;77.67
65207;SHT31;58477;48.072;11.970;2023-03-23T02:07:50;8.55;78.15
65207;SHT31;58477;48.072;11.970;2023-03-23T02:10:16;8.51;77.87
65207;SHT31;58477;48.072;11.970;2023-03-23T02:12:42;8.59;77.24
65207;SHT31;58477;48.072;11.970;2023-03-23T02:15:09;8.49;77.84
65207;SHT31;58477;48.072;11.970;2023-03-23T02:17:51;8.48;78.03
65207;SHT31;58477;48.072;11.970;2023-03-23T02:23:21;8.61;77.60
65207;SHT31;58477;48.072;11.970;2023-03-23T02:25:56;8.55;77.79
65207;SHT31;58477;48.072;11.970;2023-03-23T02:28:47;8.52;77.81
65207;SHT31;58477;48.072;11.970;2023-03-23T02:31:43;8.42;78.17
65207;SHT31;58477;48.072;11.970;2023-03-23T02:34:11;8.38;78.26
65207;SHT31;58477;48.072;11.970;2023-03-23T02:37:00;8.37;78.94
65207;SHT31;58477;48.072;11.970;2023-03-23T02:39:42;8.14;78.82
65207;SHT31;58477;48.072;11.970;2023-03-23T02:42:15;8.14;78.91
65207;SHT31;58477;48.072;11.970;2023-03-23T02:44:44;8.31;78.46
65207;SHT31;58477;48.072;11.970;2023-03-23T02:47:20;8.35;78.21
65207;SHT31;58477;48.072;11.970;2023-03-23T02:49:48;8.49;77.59
65207;SHT31;58477;48.072;11.970;2023-03-23T02:52:22;8.51;77.50
65207;SHT31;58477;48.072;11.970;2023-03-23T02:54:50;8.37;77.82
65207;SHT31;58477;48.072;11.970;2023-03-23T02:57:17;8.49;77.61
65207;SHT31;58477;48.072;11.970;2023-03-23T02:59:45;8.57;77.66
65207;SHT31;58477;48.072;11.970;2023-03-23T03:02:18;8.67;77.16
65207;SHT31;58477;48.072;11.970;2023-03-23T03:05:03;8.57;77.91
65207;SHT31;58477;48.072;11.970;2023-03-23T03:10:31;8.45;77.99
65207;SHT31;58477;48.072;11.970;2023-03-23T03:15:31;8.57;77.64
65207;SHT31;58477;48.072;11.970;2023-03-23T03:18:18;8.76;76.70
65207;SHT31;58477;48.072;11.970;2023-03-23T03:20:48;8.95;76.32
65207;SHT31;58477;48.072;11.970;2023-03-23T03:23:16;8.95;76.19
65207;SHT31;58477;48.072;11.970;2023-03-23T03:25:44;8.80;76.81
65207;SHT31;58477;48.072;11.970;2023-03-23T03:28:19;8.62;77.41
65207;SHT31;58477;48.072;11.970;2023-03-23T03:30:53;8.67;77.17
65207;SHT31;58477;48.072;11.970;2023-03-23T03:33:22;8.58;77.53
65207;SHT31;58477;48.072;11.970;2023-03-23T03:35:54;8.35;78.15
65207;SHT31;58477;48.072;11.970;2023-03-23T03:38:20;8.20;78.58
65207;SHT31;58477;48.072;11.970;2023-03-23T03:40:46;8.21;78.37
65207;SHT31;58477;48.072;11.970;2023-03-23T03:43:12;8.15;78.75
65207;SHT31;58477;48.072;11.970;2023-03-23T03:45:37;8.25;78.44
65207;SHT31;58477;48.072;11.970;2023-03-23T03:48:03;8.11;79.50
65207;SHT31;58477;48.072;11.970;2023-03-23T03:50:29;8.11;79.23
65207;SHT31;58477;48.072;11.970;2023-03-23T03:52:55;8.11;79.10
65207;SHT31;58477;48.072;11.970;2023-03-23T03:55:21;7.98;79.29
65207;SHT31;58477;48.072;11.970;2023-03-23T03:57:48;7.94;79.56
65207;SHT31;58477;48.072;11.970;2023-03-23T04:00:32;7.74;80.09
65207;SHT31;58477;48.072;11.970;2023-03-23T04:02:58;7.83;79.96
65207;SHT31;58477;48.072;11.970;2023-03-23T04:05:45;7.77;80.18
65207;SHT31;58477;48.072;11.970;2023-03-23T04:08:11;7.72;80.17
65207;SHT31;58477;48.072;11.970;2023-03-23T04:10:37;7.70;80.25
65207;SHT31;58477;48.072;11.970;2023-03-23T04:13:02;7.69;80.47
65207;SHT31;58477;48.072;11.970;2023-03-23T04:15:35;7.67;80.57
65207;SHT31;58477;48.072;11.970;2023-03-23T04:18:01;7.52;80.60
65207;SHT31;58477;48.072;11.970;2023-03-23T04:20:28;7.43;81.01
65207;SHT31;58477;48.072;11.970;2023-03-23T04:22:55;7.50;80.88
65207;SHT31;58477;48.072;11.970;2023-03-23T04:25:23;7.55;80.82
65207;SHT31;58477;48.072;11.970;2023-03-23T04:27:51;7.50;80.96
65207;SHT31;58477;48.072;11.970;2023-03-23T04:30:24;7.50;80.92
65207;SHT31;58477;48.072;11.970;2023-03-23T04:33:06;7.56;81.02
65207;SHT31;58477;48.072;11.970;2023-03-23T04:35:31;7.48;81.34
65207;SHT31;58477;48.072;11.970;2023-03-23T04:38:12;7.50;81.11
65207;SHT31;58477;48.072;11.970;2023-03-23T04:40:40;7.53;81.06
65207;SHT31;58477;48.072;11.970;2023-03-23T04:43:20;7.49;80.96
65207;SHT31;58477;48.072;11.970;2023-03-23T04:45:55;7.45;81.12
65207;SHT31;58477;48.072;11.970;2023-03-23T04:48:27;7.56;80.78
65207;SHT31;58477;48.072;11.970;2023-03-23T04:51:03;7.38;81.23
65207;SHT31;58477;48.072;11.970;2023-03-23T04:53:31;7.39;81.60
65207;SHT31;58477;48.072;11.970;2023-03-23T04:55:57;7.36;81.58
65207;SHT31;58477;48.072;11.970;2023-03-23T04:58:24;7.18;81.79
65207;SHT31;58477;48.072;11.970;2023-03-23T05:01:11;7.06;82.08
65207;SHT31;58477;48.072;11.970;2023-03-23T05:03:48;6.92;82.53
65207;SHT31;58477;48.072;11.970;2023-03-23T05:06:14;6.85;82.80
65207;SHT31;58477;48.072;11.970;2023-03-23T05:08:42;6.98;82.54
65207;SHT31;58477;48.072;11.970;2023-03-23T05:11:07;6.96;82.72
65207;SHT31;58477;48.072;11.970;2023-03-23T05:13:37;6.89;82.64
65207;SHT31;58477;48.072;11.970;2023-03-23T05:16:04;7.16;82.33
65207;SHT31;58477;48.072;11.970;2023-03-23T05:18:30;7.33;81.77
65207;SHT31;58477;48.072;11.970;2023-03-23T05:21:02;7.59;81.12
65207;SHT31;58477;48.072;11.970;2023-03-23T05:23:32;7.72;80.74
65207;SHT31;58477;48.072;11.970;2023-03-23T05:26:05;7.80;80.57
65207;SHT31;58477;48.072;11.970;2023-03-23T05:28:32;7.87;80.85
65207;SHT31;58477;48.072;11.970;2023-03-23T05:31:11;7.84;80.78
65207;SHT31;58477;48.072;11.970;2023-03-23T05:33:38;7.80;80.65
65207;SHT31;58477;48.072;11.970;2023-03-23T05:36:10;7.90;80.36
65207;SHT31;58477;48.072;11.970;2023-03-23T05:38:57;7.94;80.71
65207;SHT31;58477;48.072;11.970;2023-03-23T05:41:26;8.11;80.20
65207;SHT31;58477;48.072;11.970;2023-03-23T05:43:51;8.25;79.98
65207;SHT31;58477;48.072;11.970;2023-03-23T05:46:33;8.37;79.79
65207;SHT31;58477;48.072;11.970;2023-03-23T05:49:00;8.44;79.34
65207;SHT31;58477;48.072;11.970;2023-03-23T05:51:32;8.44;79.41
65207;SHT31;58477;48.072;11.970;2023-03-23T05:53:58;8.57;79.48
65207;SHT31;58477;48.072;11.970;2023-03-23T05:56:24;8.79;78.75
65207;SHT31;58477;48.072;11.970;2023-03-23T05:59:29;8.96;79.17
65207;SHT31;58477;48.072;11.970;2023-03-23T06:01:56;9.06;78.04
65207;SHT31;58477;48.072;11.970;2023-03-23T06:04:22;9.22;78.44
65207;SHT31;58477;48.072;11.970;2023-03-23T06:07:08;9.30;78.13
65207;SHT31;58477;48.072;11.970;2023-03-23T06:09:43;9.43;77.16
65207;SHT31;58477;48.072;11.970;2023-03-23T06:12:24;9.60;76.81
65207;SHT31;58477;48.072;11.970;2023-03-23T06:15:09;9.71;76.62
65207;SHT31;58477;48.072;11.970;2023-03-23T06:18:02;9.77;76.30
65207;SHT31;58477;48.072;11.970;2023-03-23T06:20:35;9.81;76.63
65207;SHT31;58477;48.072;11.970;2023-03-23T06:23:13;9.33;77.47
65207;SHT31;58477;48.072;11.970;2023-03-23T06:25:39;9.16;77.75
65207;SHT31;58477;48.072;11.970;2023-03-23T06:28:05;9.24;77.35
65207;SHT31;58477;48.072;11.970;2023-03-23T06:30:33;9.13;77.99
65207;SHT31;58477;48.072;11.970;2023-03-23T06:32:59;9.36;78.27
65207;SHT31;58477;48.072;11.970;2023-03-23T06:35:47;9.34;77.18
65207;SHT31;58477;48.072;11.970;2023-03-23T06:38:34;9.48;76.33
65207;SHT31;58477;48.072;11.970;2023-03-23T06:40:59;9.57;75.92
65207;SHT31;58477;48.072;11.970;2023-03-23T06:43:26;9.64;76.15
65207;SHT31;58477;48.072;11.970;2023-03-23T06:46:07;9.58;78.70
65207;SHT31;58477;48.072;11.970;2023-03-23T06:48:35;9.46;79.91
65207;SHT31;58477;48.072;11.970;2023-03-23T06:51:02;9.33;81.58
65207;SHT31;58477;48.072;11.970;2023-03-23T06:53:28;9.23;81.12
65207;SHT31;58477;48.072;11.970;2023-03-23T06:55:56;9.24;81.86
65207;SHT31;58477;48.072;11.970;2023-03-23T06:58:22;9.18;80.35
65207;SHT31;58477;48.072;11.970;2023-03-23T07:00:56;9.03;80.30
65207;SHT31;58477;48.072;11.970;2023-03-23T07:03:30;9.16;80.07
65207;SHT31;58477;48.072;11.970;2023-03-23T07:05:57;9.26;79.76
65207;SHT31;58477;48.072;11.970;2023-03-23T07:08:26;9.37;79.04
65207;SHT31;58477;48.072;11.970;2023-03-23T07:10:52;9.50;78.72
65207;SHT31;58477;48.072;11.970;2023-03-23T07:13:22;9.54;78.41
65207;SHT31;58477;48.072;11.970;2023-03-23T07:15:52;9.63;78.50
65207;SHT31;58477;48.072;11.970;2023-03-23T07:18:18;9.81;78.06
65207;SHT31;58477;48.072;11.970;2023-03-23T07:20:50;9.83;78.50
65207;SHT31;58477;48.072;11.970;2023-03-23T07:23:18;9.80;77.49
65207;SHT31;58477;48.072;11.970;2023-03-23T07:25:53;9.93;77.42
65207;SHT31;58477;48.072;11.970;2023-03-23T07:28:23;9.94;77.76
65207;SHT31;58477;48.072;11.970;2023-03-23T07:30:51;10.05;77.76
65207;SHT31;58477;48.072;11.970;2023-03-23T07:33:18;10.14;77.37
65207;SHT31;58477;48.072;11.970;2023-03-23T07:35:44;9.77;77.82
65207;SHT31;58477;48.072;11.970;2023-03-23T07:38:14;9.99;77.59
65207;SHT31;58477;48.072;11.970;2023-03-23T07:40:42;10.42;75.82
65207;SHT31;58477;48.072;11.970;2023-03-23T07:43:14;10.53;76.05
65207;SHT31;58477;48.072;11.970;2023-03-23T07:45:58;11.03;76.40
65207;SHT31;58477;48.072;11.970;2023-03-23T07:48:29;10.95;76.71
65207;SHT31;58477;48.072;11.970;2023-03-23T07:50:54;11.23;75.85
65207;SHT31;58477;48.072;11.970;2023-03-23T07:53:20;11.41;75.53
65207;SHT31;58477;48.072;11.970;2023-03-23T07:55:55;11.57;75.12
65207;SHT31;58477;48.072;11.970;2023-03-23T07:58:41;11.34;74.00
65207;SHT31;58477;48.072;11.970;2023-03-23T08:01:07;11.31;75.00
65207;SHT31;58477;48.072;11.970;2023-03-23T08:03:34;11.61;74.99
65207;SHT31;58477;48.072;11.970;2023-03-23T08:06:12;11.15;76.31
65207;SHT31;58477;48.072;11.970;2023-03-23T08:08:51;11.40;76.21
65207;SHT31;58477;48.072;11.970;2023-03-23T08:11:56;11.64;74.66
65207;SHT31;58477;48.072;11.970;2023-03-23T08:14:39;12.24;73.31
65207;SHT31;58477;48.072;11.970;2023-03-23T08:17:26;12.83;71.91
65207;SHT31;58477;48.072;11.970;2023-03-23T08:20:11;12.75;71.98
65207;SHT31;58477;48.072;11.970;2023-03-23T08:22:56;12.41;73.53
65207;SHT31;58477;48.072;11.970;2023-03-23T08:25:48;12.50;72.79
65207;SHT31;58477;48.072;11.970;2023-03-23T08:28:30;13.14;71.72
65207;SHT31;58477;48.072;11.970;2023-03-23T08:31:14;13.91;69.11
65207;SHT31;58477;48.072;11.970;2023-03-23T08:33:55;14.60;68.25
65207;SHT31;58477;48.072;11.970;2023-03-23T08:36:37;14.76;67.25
65207;SHT31;58477;48.072;11.970;2023-03-23T08:39:08;14.99;67.14
65207;SHT31;58477;48.072;11.970;2023-03-23T08:41:52;14.89;67.02
65207;SHT31;58477;48.072;11.970;2023-03-23T08:44:36;15.21;67.89
65207;SHT31;58477;48.072;11.970;2023-03-23T08:47:12;15.45;67.60
65207;SHT31;58477;48.072;11.970;2023-03-23T08:49:57;16.22;63.53
65207;SHT31;58477;48.072;11.970;2023-03-23T08:52:43;17.69;60.58
65207;SHT31;58477;48.072;11.970;2023-03-23T08:55:35;16.06;64.96
65207;SHT31;58477;48.072;11.970;2023-03-23T08:58:19;15.69;64.94
65207;SHT31;58477;48.072;11.970;2023-03-23T09:01:08;15.38;66.68
65207;SHT31;58477;48.072;11.970;2023-03-23T09:03:44;15.30;66.72
65207;SHT31;58477;48.072;11.970;2023-03-23T09:06:25;15.31;66.18
65207;SHT31;58477;48.072;11.970;2023-03-23T09:08:51;15.28;65.73
65207;SHT31;58477;48.072;11.970;2023-03-23T09:11:17;15.20;65.85
65207;SHT31;58477;48.072;11.970;2023-03-23T09:13:42;15.51;65.72
65207;SHT31;58477;48.072;11.970;2023-03-23T09:16:08;15.47;66.02
65207;SHT31;58477;48.072;11.970;2023-03-23T09:18:34;15.31;66.79
65207;SHT31;58477;48.072;11.970;2023-03-23T09:21:00;15.34;66.84
65207;SHT31;58477;48.072;11.970;2023-03-23T09:23:27;15.37;67.13
65207;SHT31;58477;48.072;11.970;2023-03-23T09:25:53;14.77;69.03
65207;SHT31;58477;48.072;11.970;2023-03-23T09:28:19;15.04;68.86
65207;SHT31;58477;48.072;11.970;2023-03-23T09:30:45;15.01;68.85
65207;SHT31;58477;48.072;11.970;2023-03-23T09:33:11;15.00;67.78
65207;SHT31;58477;48.072;11.970;2023-03-23T09:35:37;14.86;68.68
65207;SHT31;58477;48.072;11.970;2023-03-23T09:38:04;14.99;67.95
65207;SHT31;58477;48.072;11.970;2023-03-23T09:40:40;15.04;68.79
65207;SHT31;58477;48.072;11.970;2023-03-23T09:50:52;15.21;68.37
65207;SHT31;58477;48.072;11.970;2023-03-23T09:53:38;15.27;68.40
65207;SHT31;58477;48.072;11.970;2023-03-23T09:56:11;15.34;68.49
65207;SHT31;58477;48.072;11.970;2023-03-23T09:58:45;15.82;66.52
65207;SHT31;58477;48.072;11.970;2023-03-23T10:01:27;16.23;64.98
65207;SHT31;58477;48.072;11.970;2023-03-23T10:04:02;16.25;65.15
65207;SHT31;58477;48.072;11.970;2023-03-23T10:06:28;16.66;62.65
65207;SHT31;58477;48.072;11.970;2023-03-23T10:08:56;17.06;63.34
65207;SHT31;58477;48.072;11.970;2023-03-23T10:14:44;17.69;61.15
65207;SHT31;58477;48.072;11.970;2023-03-23T10:17:15;17.68;61.11
65207;SHT31;58477;48.072;11.970;2023-03-23T10:19:53;17.77;60.77
65207;SHT31;58477;48.072;11.970;2023-03-23T10:22:27;18.28;60.86
65207;SHT31;58477;48.072;11.970;2023-03-23T10:25:08;18.37;60.15
65207;SHT31;58477;48.072;11.970;2023-03-23T10:27:48;18.96;58.57
65207;SHT31;58477;48.072;11.970;2023-03-23T10:32:52;20.68;54.46
65207;SHT31;58477;48.072;11.970;2023-03-23T10:35:26;18.87;57.22
65207;SHT31;58477;48.072;11.970;2023-03-23T10:38:01;18.52;56.09
65207;SHT31;58477;48.072;11.970;2023-03-23T10:40:30;19.45;55.18
65207;SHT31;58477;48.072;11.970;2023-03-23T10:42:56;19.18;53.73
65207;SHT31;58477;48.072;11.970;2023-03-23T10:45:28;18.98;54.25
65207;SHT31;58477;48.072;11.970;2023-03-23T10:48:17;19.01;55.28
65207;SHT31;58477;48.072;11.970;2023-03-23T10:50:49;19.55;53.45
65207;SHT31;58477;48.072;11.970;2023-03-23T10:53:28;19.63;52.54
65207;SHT31;58477;48.072;11.970;2023-03-23T10:55:55;18.90;52.75
65207;SHT31;58477;48.072;11.970;2023-03-23T10:58:28;19.27;53.44
65207;SHT31;58477;48.072;11.970;2023-03-23T11:00:55;19.28;53.28
65207;SHT31;58477;48.072;11.970;2023-03-23T11:06:07;19.24;53.10
65207;SHT31;58477;48.072;11.970;2023-03-23T11:08:57;19.22;53.06
65207;SHT31;58477;48.072;11.970;2023-03-23T11:11:29;19.12;54.29
65207;SHT31;58477;48.072;11.970;2023-03-23T11:14:00;19.47;53.29
65207;SHT31;58477;48.072;11.970;2023-03-23T11:16:29;19.35;51.00
65207;SHT31;58477;48.072;11.970;2023-03-23T11:18:58;19.18;51.61
65207;SHT31;58477;48.072;11.970;2023-03-23T11:21:24;18.86;52.04
65207;SHT31;58477;48.072;11.970;2023-03-23T11:23:53;18.86;53.10
65207;SHT31;58477;48.072;11.970;2023-03-23T11:31:49;19.12;52.06
65207;SHT31;58477;48.072;11.970;2023-03-23T11:34:22;18.68;53.65
65207;SHT31;58477;48.072;11.970;2023-03-23T11:36:50;19.17;51.96
65207;SHT31;58477;48.072;11.970;2023-03-23T11:39:31;18.16;53.70
65207;SHT31;58477;48.072;11.970;2023-03-23T11:41:59;18.76;52.01
65207;SHT31;58477;48.072;11.970;2023-03-23T11:44:33;19.18;53.76
65207;SHT31;58477;48.072;11.970;2023-03-23T11:47:20;19.75;52.03
65207;SHT31;58477;48.072;11.970;2023-03-23T11:50:08;20.63;49.43
65207;SHT31;58477;48.072;11.970;2023-03-23T11:52:49;21.11;47.32
65207;SHT31;58477;48.072;11.970;2023-03-23T11:55:27;21.07;49.14
65207;SHT31;58477;48.072;11.970;2023-03-23T11:57:55;21.82;46.99
65207;SHT31;58477;48.072;11.970;2023-03-23T12:00:25;21.62;48.55
65207;SHT31;58477;48.072;11.970;2023-03-23T12:03:26;21.69;48.20
65207;SHT31;58477;48.072;11.970;2023-03-23T12:06:08;21.45;47.41
65207;SHT31;58477;48.072;11.970;2023-03-23T12:14:09;21.51;48.94
65207;SHT31;58477;48.072;11.970;2023-03-23T12:21:49;21.49;47.51
65207;SHT31;58477;48.072;11.970;2023-03-23T12:24:37;20.67;51.47
65207;SHT31;58477;48.072;11.970;2023-03-23T12:27:21;20.76;50.01
65207;SHT31;58477;48.072;11.970;2023-03-23T12:32:52;20.43;50.89
65207;SHT31;58477;48.072;11.970;2023-03-23T12:35:58;20.43;51.45
65207;SHT31;58477;48.072;11.970;2023-03-23T12:41:25;19.83;51.75
65207;SHT31;58477;48.072;11.970;2023-03-23T12:44:10;19.68;53.33
65207;SHT31;58477;48.072;11.970;2023-03-23T12:49:23;19.62;52.14
65207;SHT31;58477;48.072;11.970;2023-03-23T12:51:57;19.68;52.95
65207;SHT31;58477;48.072;11.970;2023-03-23T12:55:07;19.66;53.03
65207;SHT31;58477;48.072;11.970;2023-03-23T12:57:43;19.27;52.58
65207;SHT31;58477;48.072;11.970;2023-03-23T13:00:25;19.59;53.06
65207;SHT31;58477;48.072;11.970;2023-03-23T13:05:34;19.50;51.17
65207;SHT31;58477;48.072;11.970;2023-03-23T13:08:22;19.22;49.02
65207;SHT31;58477;48.072;11.970;2023-03-23T13:10:50;19.32;48.88
65207;SHT31;58477;48.072;11.970;2023-03-23T13:14:28;19.30;49.40
65207;SHT31;58477;48.072;11.970;2023-03-23T13:16:32;19.50;52.10
65207;SHT31;58477;48.072;11.970;2023-03-23T13:20:01;19.18;50.84
65207;SHT31;58477;48.072;11.970;2023-03-23T13:22:41;18.91;49.29
65207;SHT31;58477;48.072;11.970;2023-03-23T13:25:18;18.98;49.73
65207;SHT31;58477;48.072;11.970;2023-03-23T13:27:59;18.91;50.34
65207;SHT31;58477;48.072;11.970;2023-03-23T13:30:25;18.80;50.16
65207;SHT31;58477;48.072;11.970;2023-03-23T13:33:02;18.98;51.67
65207;SHT31;58477;48.072;11.970;2023-03-23T13:35:34;18.74;51.85
65207;SHT31;58477;48.072;11.970;2023-03-23T13:38:01;18.59;51.42
65207;SHT31;58477;48.072;11.970;2023-03-23T13:40:42;18.39;51.46
65207;SHT31;58477;48.072;11.970;2023-03-23T13:43:08;18.36;51.72
65207;SHT31;58477;48.072;11.970;2023-03-23T13:45:46;18.61;51.75
65207;SHT31;58477;48.072;11.970;2023-03-23T13:50:58;18.87;52.03
65207;SHT31;58477;48.072;11.970;2023-03-23T13:53:26;18.78;49.53
65207;SHT31;58477;48.072;11.970;2023-03-23T13:56:16;18.53;48.29
65207;SHT31;58477;48.072;11.970;2023-03-23T13:58:48;18.44;48.74
65207;SHT31;58477;48.072;11.970;2023-03-23T14:01:16;18.52;49.87
65207;SHT31;58477;48.072;11.970;2023-03-23T14:03:46;18.37;48.89
65207;SHT31;58477;48.072;11.970;2023-03-23T14:06:19;18.22;48.86
65207;SHT31;58477;48.072;11.970;2023-03-23T14:09:11;18.14;48.62
65207;SHT31;58477;48.072;11.970;2023-03-23T14:12:02;18.14;49.45
65207;SHT31;58477;48.072;11.970;2023-03-23T14:18:24;18.12;49.06
65207;SHT31;58477;48.072;11.970;2023-03-23T14:20:50;18.14;48.94
65207;SHT31;58477;48.072;11.970;2023-03-23T14:23:17;18.21;50.09
65207;SHT31;58477;48.072;11.970;2023-03-23T14:25:44;18.10;50.90
65207;SHT31;58477;48.072;11.970;2023-03-23T14:28:20;18.02;50.25
65207;SHT31;58477;48.072;11.970;2023-03-23T14:30:52;18.10;50.75
65207;SHT31;58477;48.072;11.970;2023-03-23T14:33:18;18.02;50.83
65207;SHT31;58477;48.072;11.970;2023-03-23T14:35:45;18.19;52.35
65207;SHT31;58477;48.072;11.970;2023-03-23T14:38:16;18.09;51.23
65207;SHT31;58477;48.072;11.970;2023-03-23T14:40:43;18.16;50.87
65207;SHT31;58477;48.072;11.970;2023-03-23T14:43:11;18.05;50.34
65207;SHT31;58477;48.072;11.970;2023-03-23T14:45:38;17.93;51.31
65207;SHT31;58477;48.072;11.970;2023-03-23T14:48:05;17.96;51.40
65207;SHT31;58477;48.072;11.970;2023-03-23T14:50:40;17.93;51.42
65207;SHT31;58477;48.072;11.970;2023-03-23T14:53:19;18.12;51.26
65207;SHT31;58477;48.072;11.970;2023-03-23T14:55:47;18.21;51.31
65207;SHT31;58477;48.072;11.970;2023-03-23T14:58:15;18.03;53.01
65207;SHT31;58477;48.072;11.970;2023-03-23T15:00:45;17.89;53.34
65207;SHT31;58477;48.072;11.970;2023-03-23T15:03:15;18.09;53.54
65207;SHT31;58477;48.072;11.970;2023-03-23T15:05:59;18.09;52.92
65207;SHT31;58477;48.072;11.970;2023-03-23T15:08:28;18.06;55.03
65207;SHT31;58477;48.072;11.970;2023-03-23T15:11:08;17.82;53.80
65207;SHT31;58477;48.072;11.970;2023-03-23T15:13:37;17.82;54.25
65207;SHT31;58477;48.072;11.970;2023-03-23T15:16:12;17.86;54.36
65207;SHT31;58477;48.072;11.970;2023-03-23T15:18:40;17.92;54.39
65207;SHT31;58477;48.072;11.970;2023-03-23T15:21:18;17.67;54.55
65207;SHT31;58477;48.072;11.970;2023-03-23T15:23:45;17.71;53.87
65207;SHT31;58477;48.072;11.970;2023-03-23T15:26:22;17.59;54.95
65207;SHT31;58477;48.072;11.970;2023-03-23T15:28:48;17.58;55.61
65207;SHT31;58477;48.072;11.970;2023-03-23T15:31:14;17.48;55.15
65207;SHT31;58477;48.072;11.970;2023-03-23T15:33:40;17.48;55.02
65207;SHT31;58477;48.072;11.970;2023-03-23T15:36:15;17.44;55.73
65207;SHT31;58477;48.072;11.970;2023-03-23T15:38:43;17.48;54.82
65207;SHT31;58477;48.072;11.970;2023-03-23T15:41:22;17.42;56.17
65207;SHT31;58477;48.072;11.970;2023-03-23T15:43:50;17.24;55.81
65207;SHT31;58477;48.072;11.970;2023-03-23T15:51:16;17.21;57.00
65207;SHT31;58477;48.072;11.970;2023-03-23T15:53:42;17.15;56.96
65207;SHT31;58477;48.072;11.970;2023-03-23T15:56:09;17.00;56.09
65207;SHT31;58477;48.072;11.970;2023-03-23T15:58:36;16.95;56.34
65207;SHT31;58477;48.072;11.970;2023-03-23T16:01:09;16.94;56.58
65207;SHT31;58477;48.072;11.970;2023-03-23T16:03:38;16.94;56.38
65207;SHT31;58477;48.072;11.970;2023-03-23T16:06:03;16.91;56.12
65207;SHT31;58477;48.072;11.970;2023-03-23T16:08:29;16.85;57.08
65207;SHT31;58477;48.072;11.970;2023-03-23T16:10:55;16.80;57.29
65207;SHT31;58477;48.072;11.970;2023-03-23T16:13:20;16.70;57.48
65207;SHT31;58477;48.072;11.970;2023-03-23T16:15:47;16.60;57.72
65207;SHT31;58477;48.072;11.970;2023-03-23T16:18:18;16.53;57.78
65207;SHT31;58477;48.072;11.970;2023-03-23T16:20:45;16.50;58.36
65207;SHT31;58477;48.072;11.970;2023-03-23T16:23:11;16.40;59.47
65207;SHT31;58477;48.072;11.970;2023-03-23T16:25:36;16.38;58.62
65207;SHT31;58477;48.072;11.970;2023-03-23T16:28:01;16.32;58.37
65207;SHT31;58477;48.072;11.970;2023-03-23T16:30:28;16.26;59.99
65207;SHT31;58477;48.072;11.970;2023-03-23T16:32:56;16.20;59.43
65207;SHT31;58477;48.072;11.970;2023-03-23T16:35:22;16.12;59.93
65207;SHT31;58477;48.072;11.970;2023-03-23T16:37:50;16.05;59.46
65207;SHT31;58477;48.072;11.970;2023-03-23T16:40:17;15.94;60.18
65207;SHT31;58477;48.072;11.970;2023-03-23T16:42:42;15.88;61.18
65207;SHT31;58477;48.072;11.970;2023-03-23T16:45:09;15.84;62.63
65207;SHT31;58477;48.072;11.970;2023-03-23T16:47:35;15.72;62.31
65207;SHT31;58477;48.072;11.970;2023-03-23T16:50:01;15.57;62.64
65207;SHT31;58477;48.072;11.970;2023-03-23T16:52:26;15.54;63.71
65207;SHT31;58477;48.072;11.970;2023-03-23T16:54:52;15.50;63.61
65207;SHT31;58477;48.072;11.970;2023-03-23T16:57:18;15.47;63.85
65207;SHT31;58477;48.072;11.970;2023-03-23T16:59:43;15.40;63.72
65207;SHT31;58477;48.072;11.970;2023-03-23T17:02:14;15.41;63.35